Latest Weather Observations for Ceduna

IDS60801

Issued at 11:02 am CST Tuesday 26 May 2015 (issued every 30 minutes, with the page automatically refreshed every 10 minutes)

About weather observations | Map of weather stations | Latest weather observations for SA | Other Formats
Station Details ID: 018012 Name: CEDUNA AMO Lat: -32.13 Lon: 133.70 Height: 15.3 m
Data from the previous 72 hours. | See also: Recent months at Ceduna
Date/Time
CST
Temp
°C
App
Temp
°C
Dew
Point
Rel
Hum
%
Delta-T
°C
Wind Press
QNH
hPa
Press
MSL
hPa
Rain
since 9 am
mm
Dir
 
Spd
km/h
Gust
km/h
Spd
kts
Gust
kts
26/11:00am 19.7 15.8 9.6 52 5.3 N 20 28 11 15 1023.0 1023.0 0.0
26/10:30am 19.2 14.9 9.4 53 5.2 N 22 30 12 16 1023.1 1023.1 0.0
26/10:00am 18.7 15.1 9.8 56 4.7 N 19 28 10 15 1023.5 1023.5 0.0
26/09:30am 17.7 14.9 10.1 61 4.0 N 15 22 8 12 1023.6 1023.6 0.0
26/09:00am 15.6 15.7 11.4 76 2.2 N 2 7 1 4 1023.7 1023.7 0.4
26/08:30am 12.2 10.5 9.8 85 1.2 NNE 9 11 5 6 1023.6 1023.6 0.4
26/08:00am 9.8 7.8 8.6 92 0.6 NE 9 13 5 7 1023.5 1023.5 0.4
26/07:30am 8.8 5.8 7.6 92 0.6 NE 13 15 7 8 1023.3 1023.3 0.4
26/07:00am 8.9 5.9 7.8 93 0.5 ENE 13 15 7 8 1023.2 1023.2 0.4
26/06:30am 7.8 4.6 6.9 94 0.4 ENE 13 15 7 8 1023.1 1023.1 0.4
26/06:00am 7.4 4.1 6.3 93 0.5 ENE 13 15 7 8 1023.3 1023.3 0.4
26/05:30am 7.9 5.4 6.7 92 0.6 NE 9 11 5 6 1023.2 1023.2 0.4
26/05:00am 8.9 6.3 7.7 92 0.6 NE 11 13 6 7 1023.3 1023.3 0.4
26/04:30am 8.4 5.7 7.3 93 0.5 NE 11 15 6 8 1023.3 1023.3 0.4
26/04:00am 7.8 4.9 6.6 92 0.5 ENE 11 13 6 7 1023.5 1023.5 0.4
26/03:30am 8.6 5.9 7.4 92 0.6 NE 11 13 6 7 1023.7 1023.7 0.4
26/03:00am 8.9 6.7 7.7 92 0.6 NE 9 11 5 6 1023.9 1023.9 0.4
26/02:30am 9.2 7.1 8.1 93 0.5 NNE 9 11 5 6 1024.0 1024.0 0.4
26/02:00am 8.3 5.5 7.1 92 0.6 ENE 11 13 6 7 1024.1 1024.1 0.4
26/01:30am 9.8 7.8 8.7 93 0.5 NNE 9 9 5 5 1024.5 1024.5 0.4
26/01:00am 10.0 8.4 8.9 93 0.5 NE 7 9 4 5 1024.4 1024.4 0.4
26/12:30am 10.3 8.8 9.1 92 0.6 NE 7 9 4 5 1024.6 1024.6 0.4
26/12:00am 10.9 9.2 9.7 92 0.6 ENE 9 13 5 7 1024.6 1024.6 0.4
 
Date/Time
CST
Temp
°C
App
Temp
°C
Dew
Point
Rel
Hum
%
Delta-T
°C
Wind Press
QNH
hPa
Press
MSL
hPa
Rain
since 9 am
mm
Dir
 
Spd
km/h
Gust
km/h
Spd
kts
Gust
kts
25/11:30pm 10.9 8.5 10.0 94 0.5 E 13 15 7 8 1024.7 1024.7 0.4
25/11:00pm 10.5 8.0 9.6 94 0.5 E 13 13 7 7 1024.9 1024.9 0.4
25/10:30pm 10.7 9.3 9.5 92 0.6 E 7 9 4 5 1025.2 1025.2 0.4
25/10:00pm 11.1 9.0 9.9 92 0.6 E 11 13 6 7 1025.2 1025.2 0.4
25/09:30pm 11.6 9.9 10.0 90 0.8 ESE 9 11 5 6 1025.2 1025.2 0.4
25/09:00pm 12.4 10.9 10.5 88 1.0 SE 9 11 5 6 1025.1 1025.1 0.4
25/08:30pm 13.6 12.3 11.3 86 1.2 ESE 9 11 5 6 1025.0 1025.0 0.4
25/08:00pm 13.9 12.3 11.4 85 1.3 SE 11 13 6 7 1024.9 1024.9 0.4
25/07:30pm 14.1 12.8 11.1 82 1.6 ESE 9 11 5 6 1025.1 1025.1 0.4
25/07:00pm 14.0 12.8 11.5 85 1.3 ESE 9 11 5 6 1024.7 1024.7 0.4
25/06:30pm 14.5 13.4 12.0 85 1.3 ESE 9 11 5 6 1024.6 1024.6 0.4
25/06:00pm 14.9 13.9 12.4 85 1.4 E 9 11 5 6 1024.1 1024.1 0.4
25/05:30pm 15.4 14.6 12.9 85 1.4 ESE 9 11 5 6 1024.1 1024.1 0.4
25/05:00pm 15.9 15.4 12.6 81 1.8 ESE 7 9 4 5 1024.2 1024.2 0.4
25/04:30pm 16.1 15.6 12.5 79 2.0 SE 7 7 4 4 1024.3 1024.3 0.4
25/04:00pm 16.0 15.4 11.6 75 2.4 SSE 6 7 3 4 1024.5 1024.5 0.4
25/03:30pm 16.3 15.4 11.5 73 2.6 S 7 7 4 4 1024.3 1024.3 0.2
25/03:00pm 16.6 15.6 10.9 69 3.0 WSW 7 9 4 5 1024.5 1024.5 0.2
25/02:30pm 17.1 15.7 10.9 67 3.3 WNW 9 11 5 6 1024.4 1024.4 0.2
25/02:00pm 17.2 15.6 10.1 63 3.8 NNW 9 13 5 7 1024.4 1024.4 0.0
25/01:30pm 18.2 14.9 7.9 51 5.2 N 15 19 8 10 1024.2 1024.2 0.0
25/01:00pm 18.9 15.4 7.0 46 6.0 N 15 19 8 10 1024.4 1024.4 0.0
25/12:30pm 19.4 16.5 8.1 48 5.8 N 13 17 7 9 1024.7 1024.7 0.0
25/12:00pm 18.6 14.2 7.4 48 5.6 N 20 26 11 14 1025.2 1025.2 0.0
25/11:30am 17.8 13.5 7.8 52 5.0 NNE 20 28 11 15 1025.8 1025.8 0.0
25/11:00am 16.9 13.3 8.3 57 4.4 NE 17 22 9 12 1026.0 1026.0 0.0
25/10:30am 16.8 12.9 8.5 58 4.2 NE 19 24 10 13 1026.0 1026.0 0.0
25/10:00am 15.7 11.4 7.7 59 4.0 NE 20 28 11 15 1026.2 1026.2 0.0
25/09:30am 14.6 10.9 7.9 64 3.3 NE 17 22 9 12 1026.3 1026.3 0.0
25/09:00am 13.4 10.4 7.8 69 2.7 NNE 13 17 7 9 1026.0 1026.0 1.2
25/08:30am 12.7 9.6 7.4 70 2.6 NE 13 17 7 9 1025.8 1025.8 1.2
25/08:00am 12.3 8.4 7.2 71 2.5 ENE 17 20 9 11 1025.7 1025.7 1.2
25/07:30am 12.0 8.5 7.3 73 2.3 NE 15 19 8 10 1025.8 1025.8 1.2
25/07:00am 12.1 8.3 7.4 73 2.3 NE 17 20 9 11 1025.7 1025.7 1.2
25/06:30am 12.2 8.4 7.5 73 2.3 NE 17 20 9 11 1025.3 1025.3 1.2
25/06:00am 12.5 8.7 7.4 71 2.5 NE 17 20 9 11 1025.2 1025.2 1.2
25/05:30am 12.7 8.9 7.6 71 2.5 NE 17 20 9 11 1025.1 1025.1 1.2
25/05:00am 12.7 8.6 7.8 72 2.4 ENE 19 22 10 12 1025.0 1025.0 1.2
25/04:30am 12.7 8.6 7.8 72 2.4 ENE 19 22 10 12 1024.9 1024.9 1.2
25/04:00am 12.7 8.6 8.0 73 2.3 ENE 19 22 10 12 1025.0 1025.0 1.2
25/03:30am 12.5 8.5 8.2 75 2.1 ENE 19 22 10 12 1024.8 1024.8 1.2
25/03:00am 12.3 8.3 8.2 76 2.0 ENE 19 22 10 12 1025.0 1025.0 1.2
25/02:30am 12.3 8.7 8.2 76 2.0 ENE 17 20 9 11 1025.2 1025.2 1.2
25/02:00am 12.4 8.8 8.3 76 2.0 ENE 17 20 9 11 1025.2 1025.2 1.2
25/01:30am 12.5 9.3 8.6 77 1.9 ENE 15 19 8 10 1025.1 1025.1 1.2
25/01:00am 12.7 9.5 8.6 76 2.0 ENE 15 19 8 10 1025.3 1025.3 1.2
25/12:30am 12.9 9.4 8.6 75 2.1 ENE 17 20 9 11 1025.6 1025.6 1.2
25/12:00am 12.8 9.3 8.7 76 2.0 ENE 17 20 9 11 1025.8 1025.8 1.2
 
Date/Time
CST
Temp
°C
App
Temp
°C
Dew
Point
Rel
Hum
%
Delta-T
°C
Wind Press
QNH
hPa
Press
MSL
hPa
Rain
since 9 am
mm
Dir
 
Spd
km/h
Gust
km/h
Spd
kts
Gust
kts
24/11:30pm 13.0 9.5 8.9 76 2.0 ENE 17 20 9 11 1025.8 1025.8 1.2
24/11:00pm 12.9 9.9 9.2 78 1.9 ENE 15 17 8 9 1025.8 1025.8 1.2
24/10:30pm 12.5 9.9 9.5 82 1.5 E 13 15 7 8 1026.0 1026.0 1.2
24/10:00pm 12.1 9.6 9.7 85 1.2 E 13 15 7 8 1026.0 1026.0 1.2
24/09:30pm 12.9 10.0 9.7 81 1.6 E 15 17 8 9 1025.7 1025.7 1.2
24/09:00pm 13.3 10.5 10.1 81 1.6 E 15 17 8 9 1025.7 1025.7 1.2
24/08:30pm 13.3 10.5 10.1 81 1.6 ESE 15 17 8 9 1025.8 1025.8 1.2
24/08:00pm 13.4 10.6 10.0 80 1.8 ESE 15 19 8 10 1025.6 1025.6 1.2
24/07:30pm 13.7 11.0 10.3 80 1.8 ESE 15 19 8 10 1025.6 1025.6 1.2
24/07:00pm 13.9 12.0 10.5 80 1.8 SE 11 15 6 8 1025.3 1025.3 1.2
24/06:30pm 14.1 11.9 10.7 80 1.8 ESE 13 17 7 9 1025.2 1025.2 1.2
24/06:00pm 14.6 12.6 10.2 75 2.3 ESE 11 13 6 7 1024.9 1024.9 1.2
24/05:30pm 15.2 12.8 10.0 71 2.7 E 13 17 7 9 1024.4 1024.4 1.2
24/05:00pm 16.1 12.8 9.5 65 3.4 E 17 19 9 10 1024.3 1024.3 1.2
24/04:30pm 16.6 13.6 9.3 62 3.8 ENE 15 20 8 11 1024.3 1024.3 1.2
24/04:00pm 16.7 13.4 9.6 63 3.7 ENE 17 20 9 11 1024.4 1024.4 1.2
24/03:30pm 16.2 13.5 8.9 62 3.7 NE 13 19 7 10 1024.7 1024.7 1.2
24/03:00pm 16.0 13.2 8.7 62 3.7 NE 13 15 7 8 1024.8 1024.8 1.2
24/02:30pm 16.1 13.9 9.3 64 3.5 NE 11 17 6 9 1024.7 1024.7 1.2
24/02:00pm 15.8 14.9 11.2 74 2.5 NNE 7 13 4 7 1024.9 1024.9 1.2
24/01:30pm 14.3 13.3 10.3 77 2.1 NE 6 9 3 5 1025.3 1025.3 1.2
24/01:00pm 13.9 12.6 11.4 85 1.3 NE 9 11 5 6 1025.8 1025.8 1.2
24/12:30pm 13.2 12.0 11.6 90 0.8 ENE 9 11 5 6 1026.1 1026.1 1.2
24/12:00pm 12.6 11.5 10.7 88 1.0 NNE 7 9 4 5 1026.6 1026.6 1.2
24/11:30am 12.6 12.8 10.5 87 1.1 CALM 0 2 0 1 1026.9 1026.9 1.2
24/11:00am 12.1 11.0 10.5 90 0.8 ENE 7 11 4 6 1027.0 1027.0 1.2
24/10:30am 11.4 9.7 10.0 91 0.7 N 9 11 5 6 1027.5 1027.5 0.8
24/10:00am 11.5 9.4 9.9 90 0.8 N 11 15 6 8 1027.4 1027.4 0.6
24/09:30am 11.0 9.3 9.8 92 0.6 NE 9 11 5 6 1027.1 1027.1 0.4
24/09:00am 10.4 8.9 9.0 91 0.7 NE 7 9 4 5 1026.7 1026.7 0.6
24/08:30am 10.4 7.6 8.7 89 0.8 NNE 13 17 7 9 1026.2 1026.2 0.6
24/08:00am 10.0 7.1 8.1 88 0.9 NNE 13 15 7 8 1026.0 1026.0 0.2
24/07:30am 10.5 7.8 7.4 81 1.5 NNE 11 13 6 7 1025.7 1025.7 0.0
24/07:00am 11.2 7.9 6.5 73 2.2 N 13 15 7 8 1025.5 1025.5 0.0
24/06:30am 11.5 7.4 6.0 69 2.6 N 17 19 9 10 1024.9 1024.9 0.0
24/06:00am 11.0 7.3 6.2 72 2.2 NE 15 19 8 10 1024.7 1024.7 0.0
24/05:30am 10.5 7.1 5.7 72 2.2 NNE 13 15 7 8 1024.5 1024.5 0.0
24/05:00am 11.1 6.9 5.6 69 2.5 NNE 17 20 9 11 1024.4 1024.4 0.0
24/04:30am 11.8 8.0 5.7 66 2.8 NNE 15 20 8 11 1024.6 1024.6 0.0
24/04:00am 11.2 7.8 5.9 70 2.5 NE 13 17 7 9 1024.6 1024.6 0.0
24/03:30am 10.6 6.4 5.6 71 2.3 NE 17 20 9 11 1024.5 1024.5 0.0
24/03:00am 10.2 5.9 5.2 71 2.3 NE 17 20 9 11 1024.5 1024.5 0.0
24/02:30am 9.7 5.8 5.3 74 2.0 NE 15 19 8 10 1024.5 1024.5 0.0
24/02:00am 10.1 6.5 5.1 71 2.3 NNE 13 17 7 9 1024.6 1024.6 0.0
24/01:30am 10.4 6.1 5.2 70 2.4 NE 17 19 9 10 1024.4 1024.4 0.0
24/01:00am 10.0 6.1 5.2 72 2.2 NE 15 17 8 9 1024.6 1024.6 0.0
24/12:30am 9.2 5.1 4.6 73 2.0 ENE 15 17 8 9 1024.8 1024.8 0.0
24/12:00am 10.2 6.2 5.0 70 2.3 ENE 15 19 8 10 1025.0 1025.0 0.0
 
Date/Time
CST
Temp
°C
App
Temp
°C
Dew
Point
Rel
Hum
%
Delta-T
°C
Wind Press
QNH
hPa
Press
MSL
hPa
Rain
since 9 am
mm
Dir
 
Spd
km/h
Gust
km/h
Spd
kts
Gust
kts
23/11:30pm 10.0 6.0 5.0 71 2.2 ENE 15 17 8 9 1025.1 1025.1 0.0
23/11:00pm 10.1 5.8 5.1 71 2.3 ENE 17 19 9 10 1025.2 1025.2 0.0
23/10:30pm 9.8 5.8 5.0 72 2.1 ENE 15 17 8 9 1025.5 1025.5 0.0
23/10:00pm 10.0 7.2 5.0 71 2.3 NE 9 11 5 6 1025.9 1025.9 0.0
23/09:30pm 11.3 7.4 5.4 67 2.7 NE 15 19 8 10 1025.6 1025.6 0.0
23/09:00pm 11.2 7.8 5.7 69 2.5 ENE 13 15 7 8 1025.4 1025.4 0.0
23/08:30pm 10.5 6.3 5.7 72 2.2 ENE 17 17 9 9 1025.6 1025.6 0.0
23/08:00pm 11.0 6.8 5.5 69 2.5 NE 17 19 9 10 1025.7 1025.7 0.0
23/07:30pm 9.8 6.0 5.6 75 1.9 ENE 15 15 8 8 1025.7 1025.7 0.0
23/07:00pm 9.7 6.1 5.1 73 2.1 ENE 13 15 7 8 1025.5 1025.5 0.0
23/06:30pm 10.6 7.0 5.2 69 2.4 ENE 13 15 7 8 1025.2 1025.2 0.0
23/06:00pm 12.6 9.4 5.3 61 3.4 NE 11 13 6 7 1025.1 1025.1 0.0
23/05:30pm 15.6 12.4 5.2 50 4.9 NNE 11 13 6 7 1025.1 1025.1 0.0
23/05:00pm 17.9 14.4 5.5 44 6.0 NE 13 19 7 10 1024.7 1024.7 0.0
23/04:30pm 17.7 12.3 4.6 42 6.2 NE 22 28 12 15 1024.6 1024.6 0.0
23/04:00pm 19.0 14.2 5.8 42 6.5 NE 20 30 11 16 1024.9 1024.9 0.0
23/03:30pm 18.9 14.1 5.4 41 6.6 NE 20 30 11 16 1024.9 1024.9 0.0
23/03:00pm 18.8 14.1 6.0 43 6.3 NE 20 35 11 19 1025.3 1025.3 0.0
23/02:30pm 18.8 14.2 6.6 45 6.1 NNE 20 28 11 15 1025.6 1025.6 0.0
23/02:00pm 18.6 13.8 5.5 42 6.4 NNE 20 32 11 17 1025.9 1025.9 0.0
23/01:30pm 18.3 12.9 6.2 45 5.9 NNE 24 32 13 17 1026.3 1026.3 0.0
23/01:00pm 18.1 13.8 6.9 48 5.6 NNE 19 28 10 15 1026.8 1026.8 0.0
23/12:30pm 17.6 12.9 7.6 52 5.0 NE 22 30 12 16 1027.2 1027.2 0.0
23/12:00pm 17.0 13.0 8.9 59 4.2 NNE 20 26 11 14 1027.7 1027.7 0.0
23/11:30am 16.0 12.2 9.2 64 3.5 NNE 19 24 10 13 1028.2 1028.2 0.0

Other Formats:

Comma delimited format used in spreadsheet applications
http://www.bom.gov.au/fwo/IDS60801/IDS60801.94653.axf

JavaScript Object Notation format (JSON) in row-major order
http://www.bom.gov.au/fwo/IDS60801/IDS60801.94653.json